Time;durP1;ratioP1;P1;durP2;ratioP2;P2;SDS_P1;SDS_P2;PMS_P1;PMS_P2;Temp;Humidity;BMP_temperature;BMP_pressure;BME280_temperature;BME280_humidity;BME280_pressure;Samples;Min_cycle;Max_cycle;Signal;HPM_P1;HPM_P2
2022/07/19 00:01:50;;;;;;;8.50;3.50;;;;;;;15.50;59.44;101798.55;106103;1261;60814;-79
2022/07/19 00:04:19;;;;;;;7.30;3.00;;;;;;;15.51;59.63;101796.74;106051;1261;59368;-77
2022/07/19 00:06:49;;;;;;;14.30;3.80;;;;;;;15.53;59.63;101799.69;106151;1261;75181;-78
2022/07/19 00:09:18;;;;;;;7.20;3.40;;;;;;;15.55;59.20;101795.91;106020;1261;73652;-80
2022/07/19 00:11:47;;;;;;;9.00;3.40;;;;;;;15.54;58.98;101792.98;106112;1261;70199;-80
2022/07/19 00:14:16;;;;;;;8.10;4.00;;;;;;;15.56;58.66;101794.22;106078;1261;74943;-75
2022/07/19 00:16:49;;;;;;;8.70;3.80;;;;;;;15.57;59.24;101794.52;105869;1262;60863;-77
2022/07/19 00:23:36;;;;;;;10.40;3.40;;;;;;;15.63;58.48;101795.60;106077;1261;73654;-77
2022/07/19 00:26:06;;;;;;;6.60;3.10;;;;;;;15.65;58.36;101795.48;106204;1261;72684;-75
2022/07/19 00:28:35;;;;;;;11.60;3.80;;;;;;;15.68;58.28;101796.48;105931;1264;70493;-77
2022/07/19 00:31:04;;;;;;;10.70;3.50;;;;;;;15.71;59.29;101795.41;106150;1261;74474;-76
2022/07/19 00:33:33;;;;;;;6.60;3.40;;;;;;;15.74;59.35;101793.06;106170;1261;60022;-77
2022/07/19 00:36:03;;;;;;;10.60;3.60;;;;;;;15.77;59.05;101794.75;106187;1261;61326;-77
2022/07/19 00:38:32;;;;;;;10.30;4.30;;;;;;;15.78;59.89;101793.31;106170;1261;74286;-78
2022/07/19 00:41:02;;;;;;;11.00;3.90;;;;;;;15.77;59.97;101789.63;106007;1261;70005;-74
2022/07/19 00:43:31;;;;;;;8.60;3.80;;;;;;;15.81;60.18;101791.30;106038;1262;69885;-75
2022/07/19 00:46:00;;;;;;;6.40;3.30;;;;;;;15.85;59.89;101789.35;106087;1261;72477;-75
2022/07/19 00:48:29;;;;;;;9.90;3.20;;;;;;;15.95;59.34;101785.44;105893;1261;62776;-76
2022/07/19 00:50:58;;;;;;;9.70;3.40;;;;;;;16.00;58.66;101787.36;106044;1261;62283;-76
2022/07/19 00:53:28;;;;;;;10.00;3.20;;;;;;;15.99;58.26;101784.59;106047;1261;75613;-73
2022/07/19 00:55:57;;;;;;;7.30;3.40;;;;;;;15.95;58.34;101784.54;105895;1261;72583;-74
2022/07/19 00:58:27;;;;;;;7.20;2.70;;;;;;;15.92;58.39;101781.45;106081;1261;69236;-72
2022/07/19 01:00:56;;;;;;;7.50;3.00;;;;;;;15.92;60.62;101780.58;105974;1261;73371;-74
2022/07/19 01:03:25;;;;;;;8.50;3.00;;;;;;;15.92;61.89;101780.93;105980;1261;62936;-75
2022/07/19 01:05:57;;;;;;;8.70;3.20;;;;;;;15.95;62.40;101780.54;105892;1260;60526;-79
2022/07/19 01:08:26;;;;;;;11.00;2.90;;;;;;;15.97;62.64;101780.00;105892;1261;72271;-78
2022/07/19 01:10:55;;;;;;;6.10;3.00;;;;;;;15.97;63.35;101776.83;106120;1260;69664;-79
2022/07/19 01:13:24;;;;;;;7.50;3.00;;;;;;;15.96;62.81;101773.95;106100;1261;69096;-75
2022/07/19 01:15:53;;;;;;;7.30;3.20;;;;;;;15.99;62.29;101775.67;105930;1261;73338;-78
2022/07/19 01:18:22;;;;;;;6.40;2.90;;;;;;;16.02;62.65;101776.60;106043;1261;59799;-75
2022/07/19 01:20:52;;;;;;;6.70;2.80;;;;;;;16.04;62.85;101773.83;106105;1261;60820;-74
2022/07/19 01:23:21;;;;;;;6.00;3.00;;;;;;;16.05;63.47;101774.79;105770;1261;73858;-77
2022/07/19 01:25:50;;;;;;;7.10;2.70;;;;;;;16.04;63.71;101777.70;106008;1261;70786;-77
2022/07/19 01:28:19;;;;;;;5.80;2.50;;;;;;;16.03;64.81;101771.23;106238;1260;70658;-73
2022/07/19 01:30:50;;;;;;;7.40;2.60;;;;;;;16.02;64.40;101772.02;106209;1260;72404;-76
2022/07/19 01:33:29;;;;;;;8.20;2.90;;;;;;;16.04;65.06;101771.40;106096;1261;59565;-75
2022/07/19 01:35:58;;;;;;;6.60;2.90;;;;;;;16.04;64.95;101771.87;106222;1260;61386;-75
2022/07/19 01:38:27;;;;;;;6.20;2.80;;;;;;;16.05;65.10;101766.21;106141;1261;72574;-76
2022/07/19 01:40:59;;;;;;;7.90;3.10;;;;;;;16.05;64.70;101763.41;106166;1261;69958;-75
2022/07/19 01:43:27;;;;;;;7.10;2.80;;;;;;;16.05;64.33;101764.29;106111;1261;70680;-75
2022/07/19 01:45:57;;;;;;;8.30;3.00;;;;;;;16.05;63.94;101765.52;106293;1261;73844;-73
2022/07/19 01:48:26;;;;;;;8.10;3.00;;;;;;;16.07;63.85;101764.09;106177;1260;61159;-75
2022/07/19 01:50:55;;;;;;;6.60;2.60;;;;;;;16.10;63.71;101760.86;106391;1261;59557;-77
2022/07/19 01:53:24;;;;;;;6.10;3.20;;;;;;;16.12;64.04;101757.86;106103;1261;75023;-77
2022/07/19 01:55:53;;;;;;;6.50;3.10;;;;;;;16.15;64.33;101759.38;106055;1261;72785;-76
2022/07/19 01:58:22;;;;;;;4.80;2.50;;;;;;;16.13;64.46;101757.50;106062;1263;71435;-78
2022/07/19 02:00:51;;;;;;;8.00;2.90;;;;;;;16.10;64.77;101758.91;106078;1261;73754;-80
2022/07/19 02:03:20;;;;;;;5.50;2.70;;;;;;;16.09;64.37;101758.70;105975;1262;59624;-80
2022/07/19 02:05:49;;;;;;;11.40;3.00;;;;;;;16.07;64.23;101758.85;106101;1261;59895;-76
2022/07/19 02:08:18;;;;;;;6.90;2.60;;;;;;;16.04;64.68;101760.16;106167;1260;75296;-75
2022/07/19 02:10:47;;;;;;;5.90;2.70;;;;;;;16.00;65.37;101761.48;106131;1260;73611;-78
2022/07/19 02:13:16;;;;;;;7.10;2.50;;;;;;;15.99;65.16;101765.98;105924;1261;70966;-78
2022/07/19 02:15:45;;;;;;;8.60;3.10;;;;;;;15.98;65.28;101762.17;105993;1260;74469;-78
2022/07/19 02:18:14;;;;;;;7.10;2.70;;;;;;;15.98;65.56;101765.86;106017;1261;59722;-77
2022/07/19 02:20:43;;;;;;;8.60;3.00;;;;;;;16.00;65.52;101768.53;106007;1263;58292;-79
2022/07/19 02:23:12;;;;;;;5.60;2.70;;;;;;;16.01;65.56;101763.02;106189;1261;73185;-77
2022/07/19 02:25:41;;;;;;;6.50;2.90;;;;;;;16.04;65.79;101762.58;106325;1261;72126;-77
2022/07/19 02:28:12;;;;;;;7.90;3.10;;;;;;;16.04;66.30;101763.45;106243;1260;67973;-78
2022/07/19 02:30:41;;;;;;;6.20;2.70;;;;;;;15.98;66.73;101766.39;106014;1262;71068;-75
2022/07/19 02:33:10;;;;;;;9.90;2.90;;;;;;;15.95;66.97;101766.11;105918;1262;63666;-80
2022/07/19 02:35:39;;;;;;;5.50;3.10;;;;;;;15.92;67.32;101764.43;106152;1261;59343;-79
2022/07/19 02:38:08;;;;;;;6.00;2.60;;;;;;;15.84;67.71;101763.78;106174;1261;71760;-75
2022/07/19 02:40:37;;;;;;;7.70;2.90;;;;;;;15.82;66.47;101767.70;106167;1261;70814;-75
2022/07/19 02:43:06;;;;;;;7.30;3.20;;;;;;;15.80;65.86;101768.86;106013;1262;69176;-82
2022/07/19 02:45:35;;;;;;;8.00;3.30;;;;;;;15.76;66.55;101768.30;106274;1260;73923;-73
2022/07/19 02:48:04;;;;;;;8.20;2.50;;;;;;;15.72;67.22;101769.81;106308;1260;60927;-72
2022/07/19 02:50:33;;;;;;;6.10;2.50;;;;;;;15.65;68.35;101768.64;106249;1263;59846;-73
2022/07/19 02:53:02;;;;;;;7.40;2.70;;;;;;;15.62;67.77;101770.38;106407;1261;73009;-75
2022/07/19 02:55:31;;;;;;;6.80;2.60;;;;;;;15.64;68.12;101772.20;106208;1261;72357;-77
2022/07/19 02:58:01;;;;;;;7.00;2.50;;;;;;;15.61;68.78;101770.27;106202;1264;68260;-78
2022/07/19 03:00:31;;;;;;;5.30;2.30;;;;;;;15.59;68.55;101767.66;106047;1260;74131;-76
2022/07/19 03:05:56;;;;;;;7.60;2.90;;;;;;;15.58;69.45;101764.94;106063;1263;61360;-79
2022/07/19 03:08:25;;;;;;;7.70;2.60;;;;;;;15.66;68.88;101771.86;106241;1261;75061;-75
2022/07/19 03:10:54;;;;;;;7.10;3.40;;;;;;;15.75;68.70;101771.17;106238;1261;72790;-74
2022/07/19 03:13:22;;;;;;;6.70;2.80;;;;;;;15.81;68.55;101768.29;106234;1261;71440;-76
2022/07/19 03:15:51;;;;;;;7.00;2.50;;;;;;;15.88;68.24;101769.30;106010;1261;74578;-73
2022/07/19 03:18:21;;;;;;;7.70;3.00;;;;;;;15.95;68.11;101771.92;105934;1264;61549;-74
2022/07/19 03:20:50;;;;;;;26.90;11.90;;;;;;;15.99;67.55;101770.91;106208;1261;60986;-74
2022/07/19 03:23:19;;;;;;;5.70;2.70;;;;;;;16.00;67.26;101770.81;106242;1261;74676;-77
2022/07/19 03:25:48;;;;;;;12.00;8.00;;;;;;;16.02;67.07;101772.44;106239;1261;71050;-73
2022/07/19 03:28:17;;;;;;;6.70;3.70;;;;;;;16.08;66.23;101768.10;106096;1263;68845;-72
2022/07/19 03:30:46;;;;;;;5.50;3.20;;;;;;;16.11;65.43;101771.15;106108;1264;71529;-76
2022/07/19 03:33:15;;;;;;;4.50;2.40;;;;;;;16.11;64.98;101767.80;106086;1264;59665;-74
2022/07/19 03:35:46;;;;;;;6.50;2.50;;;;;;;16.13;64.92;101771.90;106212;1261;59694;-73
2022/07/19 03:38:16;;;;;;;4.80;2.50;;;;;;;16.15;64.80;101772.76;105944;1261;74529;-73
2022/07/19 03:40:49;;;;;;;7.00;2.60;;;;;;;16.19;64.75;101772.11;106223;1261;72096;-72
2022/07/19 03:43:18;;;;;;;9.60;2.60;;;;;;;16.22;65.22;101771.34;106206;1261;70911;-73
2022/07/19 03:45:47;;;;;;;7.00;3.30;;;;;;;16.24;65.25;101767.66;106006;1264;72448;-73
2022/07/19 03:48:17;;;;;;;8.60;3.50;;;;;;;16.26;65.69;101769.97;106230;1261;59638;-74
2022/07/19 03:50:46;;;;;;;11.50;3.20;;;;;;;16.28;65.89;101770.92;106200;1261;59467;-74
2022/07/19 03:53:15;;;;;;;8.40;2.90;;;;;;;16.29;65.81;101775.60;106196;1261;73455;-73
2022/07/19 03:55:44;;;;;;;11.70;3.10;;;;;;;16.31;65.35;101776.63;106222;1260;73234;-74
2022/07/19 03:58:13;;;;;;;13.70;3.40;;;;;;;16.34;65.71;101774.66;106195;1261;71215;-75
2022/07/19 04:00:43;;;;;;;10.80;3.60;;;;;;;16.39;65.38;101771.36;106211;1261;73918;-74
2022/07/19 04:03:12;;;;;;;7.30;2.90;;;;;;;16.44;64.31;101770.30;106130;1261;61867;-73
2022/07/19 04:05:42;;;;;;;6.30;2.90;;;;;;;16.48;63.71;101766.84;106150;1261;60747;-72
2022/07/19 04:08:11;;;;;;;8.00;3.10;;;;;;;16.51;63.63;101768.73;105875;1261;74735;-70
2022/07/19 04:10:41;;;;;;;8.00;3.10;;;;;;;16.53;64.17;101772.72;106038;1261;73140;-73
2022/07/19 04:13:10;;;;;;;10.90;3.90;;;;;;;16.59;63.97;101772.59;105850;1264;70134;-72
2022/07/19 04:15:39;;;;;;;6.90;3.10;;;;;;;16.66;63.24;101769.92;106005;1261;73220;-71
2022/07/19 04:18:13;;;;;;;10.70;4.30;;;;;;;16.74;62.36;101767.92;106023;1261;61437;-74
2022/07/19 04:20:43;;;;;;;10.40;3.50;;;;;;;16.82;61.96;101770.39;106077;1261;61096;-72
2022/07/19 04:23:12;;;;;;;10.80;3.80;;;;;;;16.90;61.14;101769.92;106037;1261;75260;-72
2022/07/19 04:25:41;;;;;;;7.90;3.20;;;;;;;16.99;60.73;101770.40;105914;1261;73090;-72
2022/07/19 04:28:10;;;;;;;8.50;3.60;;;;;;;17.09;60.29;101769.63;106036;1261;60566;-68
2022/07/19 04:30:39;;;;;;;10.70;3.90;;;;;;;17.20;59.45;101768.10;106079;1261;62598;-73
2022/07/19 04:33:08;;;;;;;9.90;4.10;;;;;;;17.32;58.35;101766.99;106041;1261;59625;-72
2022/07/19 04:35:37;;;;;;;12.80;3.90;;;;;;;17.42;58.61;101767.02;105941;1263;57997;-71
2022/07/19 04:38:06;;;;;;;9.10;3.60;;;;;;;17.54;57.88;101767.03;106036;1260;64178;-72
2022/07/19 04:40:36;;;;;;;9.40;3.40;;;;;;;17.65;57.18;101764.48;106022;1262;72412;-68
2022/07/19 04:43:05;;;;;;;10.70;3.20;;;;;;;17.76;55.63;101765.52;106109;1261;71217;-72
2022/07/19 04:45:34;;;;;;;12.10;4.00;;;;;;;17.85;54.80;101763.89;105988;1262;62912;-74
2022/07/19 04:48:04;;;;;;;5.60;2.70;;;;;;;17.96;54.01;101763.83;106162;1261;59497;-76
2022/07/19 04:50:33;;;;;;;9.10;2.70;;;;;;;18.08;52.96;101761.88;106153;1261;61442;-70
2022/07/19 04:53:02;;;;;;;6.50;2.80;;;;;;;18.16;52.92;101761.88;105918;1264;75401;-72
2022/07/19 04:55:32;;;;;;;5.00;2.80;;;;;;;18.24;51.34;101766.97;105723;1265;62602;-72
2022/07/19 04:58:00;;;;;;;5.30;2.80;;;;;;;18.34;51.29;101763.45;106050;1261;69673;-72
2022/07/19 05:00:29;;;;;;;7.90;2.70;;;;;;;18.38;51.06;101763.62;106248;1261;64130;-74
2022/07/19 05:02:58;;;;;;;9.80;2.90;;;;;;;18.46;50.42;101764.84;105989;1264;61065;-74
2022/07/19 05:05:27;;;;;;;11.60;3.00;;;;;;;18.59;50.56;101765.78;106002;1263;59694;-73
2022/07/19 05:07:56;;;;;;;8.70;2.70;;;;;;;18.74;50.25;101762.91;106173;1261;74570;-71
2022/07/19 05:10:25;;;;;;;7.00;2.20;;;;;;;18.82;49.24;101767.82;106006;1263;72671;-69
2022/07/19 05:12:54;;;;;;;5.70;2.50;;;;;;;18.86;49.43;101767.42;106238;1262;61571;-75
2022/07/19 05:15:23;;;;;;;6.00;2.50;;;;;;;18.89;49.46;101765.46;106044;1263;63066;-74
2022/07/19 05:17:52;;;;;;;5.40;2.80;;;;;;;18.92;48.78;101765.31;106179;1261;59816;-72
2022/07/19 05:20:21;;;;;;;7.90;3.00;;;;;;;18.98;48.96;101766.56;106204;1261;59668;-75
2022/07/19 05:22:50;;;;;;;6.40;2.40;;;;;;;19.02;48.23;101765.61;105992;1263;65541;-74
2022/07/19 05:25:20;;;;;;;6.50;3.00;;;;;;;19.08;47.34;101769.69;106179;1261;61093;-72
2022/07/19 05:27:49;;;;;;;6.10;2.80;;;;;;;19.13;47.48;101769.44;106021;1264;70236;-73
2022/07/19 05:30:18;;;;;;;10.90;3.10;;;;;;;19.19;47.61;101770.59;106176;1262;73747;-71
2022/07/19 05:32:48;;;;;;;9.50;2.80;;;;;;;19.26;47.36;101767.28;106123;1261;60996;-73
2022/07/19 05:35:17;;;;;;;8.70;2.60;;;;;;;19.28;47.10;101764.97;106110;1262;60097;-74
2022/07/19 05:37:46;;;;;;;7.80;2.90;;;;;;;19.36;47.65;101762.33;106237;1262;75134;-74
2022/07/19 05:40:15;;;;;;;8.40;2.30;;;;;;;19.48;47.21;101765.20;106008;1261;73099;-71
2022/07/19 05:42:43;;;;;;;5.50;2.10;;;;;;;19.60;46.97;101761.83;106085;1263;70637;-71
2022/07/19 05:45:14;;;;;;;7.30;2.20;;;;;;;19.74;45.99;101760.02;106193;1261;73259;-69
2022/07/19 05:47:43;;;;;;;8.40;2.40;;;;;;;19.88;45.32;101760.11;106165;1262;61198;-73
2022/07/19 05:50:12;;;;;;;5.90;2.30;;;;;;;19.98;45.06;101754.90;106251;1261;61445;-71
2022/07/19 05:52:41;;;;;;;4.70;2.00;;;;;;;20.14;44.59;101759.00;106159;1261;74900;-72
2022/07/19 05:55:10;;;;;;;9.50;2.40;;;;;;;20.30;43.73;101759.23;106202;1261;72201;-72
2022/07/19 05:57:39;;;;;;;7.60;2.80;;;;;;;20.41;43.47;101761.37;106083;1262;70531;-72
2022/07/19 06:00:09;;;;;;;9.90;2.90;;;;;;;20.51;43.53;101764.45;106227;1261;74761;-75
2022/07/19 06:02:41;;;;;;;5.80;2.30;;;;;;;20.62;43.53;101761.59;106075;1261;61951;-79
2022/07/19 06:05:10;;;;;;;6.60;2.50;;;;;;;20.73;43.66;101759.44;105952;1261;60218;-77
2022/07/19 06:07:40;;;;;;;9.50;2.90;;;;;;;20.84;42.84;101755.17;106227;1261;63602;-76
2022/07/19 06:10:09;;;;;;;12.70;2.80;;;;;;;20.97;43.13;101759.57;105946;1263;61750;-74
2022/07/19 06:12:38;;;;;;;7.70;2.30;;;;;;;21.10;42.71;101763.53;106060;1264;60115;-73
2022/07/19 06:15:08;;;;;;;9.40;2.70;;;;;;;21.21;42.59;101764.88;106149;1262;63523;-73
2022/07/19 06:17:38;;;;;;;5.30;2.10;;;;;;;21.34;42.28;101760.83;106029;1263;61316;-71
2022/07/19 06:20:08;;;;;;;6.80;2.40;;;;;;;21.46;42.05;101758.72;105958;1262;61137;-74
2022/07/19 06:22:37;;;;;;;5.10;2.60;;;;;;;21.58;41.85;101760.80;106185;1261;74687;-73
2022/07/19 06:25:07;;;;;;;8.40;2.30;;;;;;;21.68;41.49;101763.15;106282;1261;71971;-80
2022/07/19 06:27:36;;;;;;;10.80;2.40;;;;;;;21.77;42.08;101762.20;106188;1263;62586;-76
2022/07/19 06:30:06;;;;;;;5.70;2.20;;;;;;;21.88;41.85;101752.02;106237;1261;73314;-81
2022/07/19 06:32:35;;;;;;;7.30;2.40;;;;;;;22.02;41.77;101754.16;106343;1261;59055;-83
2022/07/19 06:35:05;;;;;;;7.10;2.50;;;;;;;22.08;41.15;101750.47;106347;1261;59495;-79
2022/07/19 06:37:34;;;;;;;3.80;2.00;;;;;;;22.17;41.03;101752.53;106321;1264;63873;-79
2022/07/19 06:40:04;;;;;;;26.40;3.10;;;;;;;22.30;41.07;101749.39;106435;1262;70154;-82
2022/07/19 06:42:34;;;;;;;7.00;2.30;;;;;;;22.44;40.37;101750.80;106330;1263;71650;-82
2022/07/19 06:45:05;;;;;;;16.20;3.10;;;;;;;22.54;40.04;101748.84;106135;1262;63397;-86
2022/07/19 06:47:34;;;;;;;7.50;2.30;;;;;;;22.70;39.82;101743.14;106346;1261;61345;-84
2022/07/19 06:50:03;;;;;;;18.90;3.50;;;;;;;22.83;39.04;101741.41;106282;1263;61001;-86
2022/07/19 06:52:52;;;;;;;6.90;2.80;;;;;;;22.96;39.63;101740.52;106254;1261;75230;-83
2022/07/19 06:55:21;;;;;;;9.70;2.40;;;;;;;23.14;39.10;101741.30;106579;1261;61346;-83
2022/07/19 06:57:51;;;;;;;7.30;2.80;;;;;;;23.32;39.16;101738.93;106598;1262;59925;-85
2022/07/19 07:00:20;;;;;;;6.80;3.00;;;;;;;23.43;37.50;101742.15;106099;1263;74453;-84
2022/07/19 07:02:49;;;;;;;6.00;2.90;;;;;;;23.52;38.25;101741.60;106106;1263;61520;-84
2022/07/19 07:05:18;;;;;;;5.20;2.50;;;;;;;23.67;37.31;101744.29;106215;1261;60030;-78
2022/07/19 07:07:48;;;;;;;9.20;2.80;;;;;;;23.73;37.28;101741.95;106225;1261;63935;-82
2022/07/19 07:10:18;;;;;;;5.60;2.20;;;;;;;23.71;36.66;101735.85;105975;1264;60960;-80
2022/07/19 07:12:47;;;;;;;7.50;2.20;;;;;;;23.84;36.64;101734.91;106284;1262;69446;-81
2022/07/19 07:15:16;;;;;;;6.30;2.70;;;;;;;23.93;35.85;101734.61;106260;1262;63004;-78
2022/07/19 07:17:45;;;;;;;7.30;2.50;;;;;;;24.07;35.62;101734.98;106331;1261;58861;-79
2022/07/19 07:20:14;;;;;;;6.90;2.60;;;;;;;24.22;35.54;101739.93;106197;1261;60493;-79
2022/07/19 07:22:44;;;;;;;3.80;2.00;;;;;;;24.30;34.71;101736.25;105847;1261;73563;-80
2022/07/19 07:25:15;;;;;;;3.40;2.00;;;;;;;24.44;34.84;101736.99;106054;1263;73089;-84
2022/07/19 07:27:44;;;;;;;6.10;1.90;;;;;;;24.49;34.45;101736.23;106215;1261;69342;-85
2022/07/19 07:30:13;;;;;;;5.90;2.00;;;;;;;24.60;34.01;101737.17;106338;1261;63692;-82
2022/07/19 07:32:42;;;;;;;7.00;2.60;;;;;;;24.54;33.96;101735.30;106193;1263;59640;-82
2022/07/19 07:35:11;;;;;;;5.80;2.20;;;;;;;24.66;33.89;101736.84;106025;1264;59548;-81
2022/07/19 07:37:40;;;;;;;18.10;3.60;;;;;;;24.75;33.64;101736.55;106213;1261;63128;-83
2022/07/19 07:40:10;;;;;;;5.60;1.90;;;;;;;24.89;34.08;101734.52;106344;1263;61799;-83
2022/07/19 07:42:40;;;;;;;3.30;1.60;;;;;;;25.01;33.30;101732.48;106358;1262;70640;-82
2022/07/19 07:45:10;;;;;;;4.30;1.60;;;;;;;25.07;32.84;101723.67;106050;1263;72591;-80
2022/07/19 07:47:43;;;;;;;4.60;1.60;;;;;;;25.14;32.17;101733.55;106057;1264;62391;-78
2022/07/19 07:50:12;;;;;;;5.50;1.90;;;;;;;25.13;32.24;101731.98;106097;1263;61119;-83
2022/07/19 07:52:41;;;;;;;11.50;2.00;;;;;;;25.20;32.29;101729.68;106108;1263;64702;-69
2022/07/19 07:55:11;;;;;;;15.20;2.30;;;;;;;25.20;32.27;101729.85;106273;1261;60994;-76
2022/07/19 07:57:55;;;;;;;7.60;1.80;;;;;;;25.25;32.42;101726.80;106076;1264;69894;-74
2022/07/19 08:00:24;;;;;;;5.40;1.60;;;;;;;25.26;32.28;101724.43;106203;1263;62895;-78
2022/07/19 08:02:53;;;;;;;7.70;1.60;;;;;;;25.28;32.07;101725.90;106343;1261;58393;-73
2022/07/19 08:05:23;;;;;;;3.20;1.60;;;;;;;25.28;31.96;101721.63;106014;1261;61496;-77
2022/07/19 08:07:53;;;;;;;4.70;2.00;;;;;;;25.32;31.90;101710.44;106302;1262;74049;-82
2022/07/19 08:10:25;;;;;;;3.80;1.40;;;;;;;25.49;31.53;101720.48;106332;1263;62327;-71
2022/07/19 08:12:54;;;;;;;2.80;1.60;;;;;;;25.49;31.64;101715.50;106170;1263;59219;-71
2022/07/19 08:15:26;;;;;;;4.60;1.80;;;;;;;25.54;31.65;101715.34;106201;1262;63395;-72
2022/07/19 08:17:55;;;;;;;3.90;1.60;;;;;;;25.62;31.18;101713.64;106050;1263;60716;-73
2022/07/19 08:20:25;;;;;;;7.60;1.70;;;;;;;25.62;31.75;101714.61;105788;1264;62265;-72
2022/07/19 08:22:54;;;;;;;5.00;1.70;;;;;;;25.60;31.50;101718.21;106155;1262;75097;-73
2022/07/19 08:25:23;;;;;;;5.50;1.80;;;;;;;25.57;31.63;101717.55;106099;1263;61380;-75
2022/07/19 08:27:52;;;;;;;4.30;1.70;;;;;;;25.48;31.80;101718.41;106336;1262;60171;-74
2022/07/19 08:31:30;;;;;;;4.80;1.80;;;;;;;25.39;31.89;101716.48;105952;1263;63388;-73
2022/07/19 08:33:59;;;;;;;6.20;1.70;;;;;;;25.47;32.08;101712.31;105928;1263;61424;-69
2022/07/19 08:36:28;;;;;;;7.10;4.20;;;;;;;25.63;32.12;101711.63;105921;1264;59685;-69
2022/07/19 08:38:57;;;;;;;3.30;1.80;;;;;;;25.74;31.68;101704.21;105831;1263;74593;-71
2022/07/19 08:41:26;;;;;;;4.60;2.20;;;;;;;25.92;31.58;101698.88;105669;1264;72502;-72
2022/07/19 08:43:58;;;;;;;5.60;2.60;;;;;;;26.08;31.36;101700.63;105779;1263;70708;-73
2022/07/19 08:46:27;;;;;;;6.00;2.10;;;;;;;26.23;31.24;101699.02;105981;1264;63747;-73
2022/07/19 08:48:57;;;;;;;9.20;2.10;;;;;;;26.33;31.17;101703.61;105990;1264;59675;-74
2022/07/19 08:51:27;;;;;;;6.30;2.10;;;;;;;26.41;30.96;101701.69;105873;1264;60788;-72
2022/07/19 08:53:56;;;;;;;2.80;1.80;;;;;;;26.47;30.67;101701.27;105748;1263;73409;-72
2022/07/19 08:59:13;;;;;;;4.90;2.10;;;;;;;26.47;30.30;101695.21;105987;1263;59846;-72
2022/07/19 09:01:42;;;;;;;4.40;1.80;;;;;;;26.42;30.94;101687.70;105704;1264;74007;-74
2022/07/19 09:04:17;;;;;;;4.70;1.90;;;;;;;26.56;30.41;101688.24;105686;1263;63136;-72
2022/07/19 09:06:55;;;;;;;4.90;1.80;;;;;;;26.56;30.44;101685.81;106068;1264;61716;-71
2022/07/19 09:09:34;;;;;;;5.30;1.90;;;;;;;26.58;30.49;101681.42;105789;1264;75256;-74
2022/07/19 09:12:05;;;;;;;5.10;1.90;;;;;;;26.56;30.12;101675.34;105924;1264;72366;-76
2022/07/19 09:14:38;;;;;;;4.80;1.40;;;;;;;26.50;30.23;101670.58;105973;1264;60932;-75
2022/07/19 09:17:16;;;;;;;3.20;1.90;;;;;;;26.58;30.17;101664.73;105766;1263;74159;-74
2022/07/19 09:19:47;;;;;;;4.40;1.80;;;;;;;26.57;30.48;101657.75;105811;1263;60678;-76
2022/07/19 09:22:19;;;;;;;4.30;1.50;;;;;;;26.64;30.29;101657.77;105721;1264;59736;-77
2022/07/19 09:24:51;;;;;;;5.10;1.70;;;;;;;26.79;30.17;101662.50;106083;1263;63875;-77
2022/07/19 09:27:23;;;;;;;3.50;1.70;;;;;;;26.91;30.03;101668.61;105812;1264;61821;-81
2022/07/19 09:29:56;;;;;;;8.70;2.20;;;;;;;27.01;29.99;101655.69;105926;1265;59216;-70
2022/07/19 09:32:26;;;;;;;6.50;1.90;;;;;;;27.10;29.59;101652.27;105891;1263;63263;-72
2022/07/19 09:35:01;;;;;;;4.60;1.40;;;;;;;27.16;29.37;101659.30;105846;1265;59661;-70
2022/07/19 09:37:34;;;;;;;5.20;2.10;;;;;;;27.07;29.39;101654.13;105805;1264;61407;-70
2022/07/19 09:40:08;;;;;;;4.50;1.70;;;;;;;27.14;29.09;101651.27;105787;1264;73637;-74
2022/07/19 09:42:44;;;;;;;3.90;1.80;;;;;;;27.12;29.02;101656.44;105784;1264;60900;-75
2022/07/19 09:45:20;;;;;;;3.40;1.70;;;;;;;27.15;29.20;101651.05;105885;1263;70746;-73
2022/07/19 09:47:50;;;;;;;4.30;1.80;;;;;;;27.31;28.79;101651.06;105895;1263;63054;-73
2022/07/19 09:50:21;;;;;;;2.90;1.50;;;;;;;27.39;28.41;101652.23;105762;1264;59635;-74
2022/07/19 09:52:51;;;;;;;3.80;1.40;;;;;;;27.39;28.50;101652.22;105857;1264;59570;-72
2022/07/19 09:55:20;;;;;;;5.10;1.50;;;;;;;27.33;28.72;101648.57;105766;1264;63181;-73
2022/07/19 09:57:51;;;;;;;3.60;1.90;;;;;;;27.29;28.75;101647.52;105893;1262;61807;-79
2022/07/19 10:00:24;;;;;;;3.40;1.60;;;;;;;27.35;28.83;101643.70;106082;1264;60418;-69
2022/07/19 10:02:59;;;;;;;4.60;2.10;;;;;;;27.43;28.88;101637.42;106071;1263;63423;-69
2022/07/19 13:01:43;;;;;;;3.10;1.20;;;;;;;34.18;19.15;101499.98;104829;1283;601001;-74
2022/07/19 13:04:13;;;;;;;5.40;1.40;;;;;;;33.55;19.81;101491.53;106599;1260;60458;-72
2022/07/19 13:06:42;;;;;;;3.60;1.40;;;;;;;34.11;19.42;101496.49;106339;1260;61740;-78
2022/07/19 13:09:11;;;;;;;7.30;2.20;;;;;;;34.46;19.09;101496.20;106834;1257;71790;-73
2022/07/19 13:11:42;;;;;;;2.90;1.00;;;;;;;34.60;18.75;101491.34;106701;1257;71904;-74
2022/07/19 13:14:12;;;;;;;1.70;1.00;;;;;;;35.18;18.28;101489.73;106263;1255;412611;-74
2022/07/19 13:16:41;;;;;;;2.70;1.20;;;;;;;35.46;17.70;101487.36;106983;1253;73968;-79
2022/07/19 13:19:10;;;;;;;3.80;1.20;;;;;;;35.83;17.53;101489.16;106833;1254;58888;-71
2022/07/19 13:21:39;;;;;;;4.10;1.10;;;;;;;35.56;17.54;101481.67;107035;1254;58369;-74
2022/07/19 13:24:11;;;;;;;2.50;1.00;;;;;;;35.15;18.06;101479.60;107164;1253;71158;-76
2022/07/19 13:27:00;;;;;;;4.20;1.30;;;;;;;36.07;17.24;101483.91;107197;1253;72641;-76
2022/07/19 13:29:29;;;;;;;3.70;1.40;;;;;;;35.54;17.79;101480.83;107134;1254;60485;-73
2022/07/19 13:32:04;;;;;;;5.50;1.20;;;;;;;35.64;17.46;101484.61;106755;1254;63736;-75
2022/07/19 13:34:35;;;;;;;2.20;1.30;;;;;;;34.99;18.24;101482.02;106996;1254;59388;-71
2022/07/19 13:37:04;;;;;;;3.00;1.40;;;;;;;34.89;18.49;101480.64;106811;1254;61219;-72
2022/07/19 13:39:33;;;;;;;4.20;1.50;;;;;;;34.59;18.88;101474.39;106981;1253;62627;-76
2022/07/19 13:42:04;;;;;;;3.30;1.30;;;;;;;34.39;19.42;101478.54;106910;1254;61955;-75
2022/07/19 13:44:34;;;;;;;3.10;1.30;;;;;;;34.88;19.41;101480.10;107104;1253;70742;-77
2022/07/19 13:47:03;;;;;;;4.20;1.30;;;;;;;35.59;18.81;101477.88;107201;1253;74321;-78
2022/07/19 13:49:32;;;;;;;5.50;1.40;;;;;;;35.92;18.08;101478.63;106912;1253;60310;-77
2022/07/19 13:52:00;;;;;;;3.00;1.30;;;;;;;35.86;17.76;101474.23;107142;1254;58734;-76
2022/07/19 13:54:29;;;;;;;3.10;1.20;;;;;;;35.75;17.77;101479.44;107101;1254;62124;-77
2022/07/19 13:56:58;;;;;;;3.30;1.40;;;;;;;35.46;17.86;101473.09;107239;1253;61456;-79
2022/07/19 13:59:30;;;;;;;3.90;1.30;;;;;;;35.47;17.70;101471.45;107128;1253;60031;-75
2022/07/19 14:02:02;;;;;;;3.30;1.10;;;;;;;34.99;18.15;101467.98;107286;1253;73834;-75
2022/07/19 14:04:32;;;;;;;3.10;1.20;;;;;;;35.05;17.97;101466.87;107086;1253;62689;-73
2022/07/19 14:07:01;;;;;;;1.70;1.30;;;;;;;34.83;18.05;101465.69;107269;1254;57741;-79
2022/07/19 14:09:30;;;;;;;4.80;1.50;;;;;;;33.89;19.36;101462.05;107073;1254;70885;-74
2022/07/19 14:11:59;;;;;;;4.00;1.30;;;;;;;33.91;19.67;101448.77;107250;1254;72681;-76
2022/07/19 14:14:28;;;;;;;4.10;1.40;;;;;;;34.53;18.89;101448.93;106693;1256;59703;-76
2022/07/19 14:16:57;;;;;;;4.10;1.40;;;;;;;34.70;18.89;101446.19;107221;1253;74959;-75
2022/07/19 14:19:26;;;;;;;3.70;1.90;;;;;;;35.70;17.47;101439.59;107126;1253;59081;-79
2022/07/19 14:21:57;;;;;;;3.50;1.70;;;;;;;35.19;17.76;101447.14;107243;1253;61059;-78
2022/07/19 14:24:27;;;;;;;3.70;1.80;;;;;;;34.74;18.46;101441.51;107250;1253;61794;-78
2022/07/19 14:27:00;;;;;;;4.10;1.10;;;;;;;35.56;17.99;101437.55;107273;1254;62309;-81
2022/07/19 14:29:29;;;;;;;4.00;1.50;;;;;;;36.65;17.27;101432.77;107096;1254;59217;-78
2022/07/19 14:31:58;;;;;;;7.30;1.30;;;;;;;37.21;16.76;101434.06;107281;1253;63111;-74
2022/07/19 14:34:27;;;;;;;5.40;1.40;;;;;;;37.14;16.42;101430.06;107296;1253;57990;-74
2022/07/19 14:37:07;;;;;;;2.20;1.10;;;;;;;37.19;16.30;101430.22;107021;1254;58957;-80